Latest Weather Observations for Thredbo Top Station

IDN60901

Issued at 9:21 pm EST Wednesday 27 July 2016 (issued every 10 minutes, with the page automatically refreshed every 10 minutes)

About weather observations | Map of Canberra area stations | Latest observations for Canberra area | Other Formats
Station Details ID: 071032 Name: THREDBO AWS Lat: -36.49 Lon: 148.29 Height: 1957.0 m
Data from the previous 72 hours. | See also: Recent months at Thredbo Top Station
Date/Time
EST
Temp
°C
App
Temp
°C
Dew
Point
°C
Rel
Hum
%
Delta-T
°C
Wind Press
QNH
hPa
Press
MSL
hPa
Rain since
9am
mm
Dir  Spd
km/h
Gust
km/h
Spd
kts
Gust
kts
27/09:09pm -2.8 -14.7 -2.9 99 -0.1 WNW 50 69 27 37 1015.9 1019.4 0.0
27/09:00pm -3.0 -16.0 -3.1 99 -0.1 NW 56 67 30 36 1015.5 1019.0 0.0
27/08:30pm -3.0 -15.7 -3.1 99 -0.1 WNW 54 69 29 37 1014.9 1018.4 0.0
27/08:19pm -3.4 -16.5 -3.5 99 -0.1 WNW 56 74 30 40 1015.5 1019.0 0.0
27/08:00pm -3.4 -17.1 -3.5 99 -0.1 NW 59 76 32 41 1014.9 1018.4 0.0
27/07:31pm -2.7 -14.9 -2.8 99 -0.1 NW 52 70 28 38 1014.5 1018.0 0.0
27/07:30pm -2.7 -15.3 -2.8 99 -0.1 NW 54 70 29 38 1014.7 1018.2 0.0
27/07:13pm -2.8 -15.8 -2.9 99 -0.1 NW 56 76 30 41 1014.4 1017.9 0.0
27/07:00pm -2.4 -13.8 -2.5 99 -0.1 WNW 48 63 26 34 1014.7 1018.2 0.0
27/06:53pm -2.7 -15.3 -2.8 99 -0.1 WNW 54 72 29 39 1014.7 1018.2 0.0
27/06:30pm -2.7 -15.7 -2.8 99 -0.1 NW 56 70 30 38 - - 0.0
27/06:13pm -2.3 -14.1 -2.4 99 -0.1 WNW 50 70 27 38 - - 0.0
27/06:00pm -2.6 -15.2 -2.7 99 -0.1 NW 54 69 29 37 - - 0.0
27/05:30pm -2.1 -12.7 -2.2 99 -0.1 NW 44 63 24 34 - - 0.0
27/05:00pm -2.3 -13.7 -2.4 99 -0.1 NW 48 69 26 37 - - 0.0
27/04:40pm -2.3 -13.7 -2.4 99 -0.1 NW 48 67 26 36 - - 0.0
27/04:30pm -2.4 -14.2 -2.5 99 -0.1 WNW 50 67 27 36 - - 0.0
27/04:06pm -2.3 -13.0 -2.4 99 -0.1 NW 44 63 24 34 - - 0.0
27/04:00pm -2.5 -13.6 -2.6 99 -0.1 NW 46 59 25 32 - - 0.0
27/03:30pm -2.3 -14.1 -2.4 99 -0.1 NW 50 61 27 33 - - 0.0
27/03:22pm -2.2 -12.3 -2.3 99 -0.1 NW 41 61 22 33 - - 0.0
27/03:00pm -2.2 -12.7 -2.3 99 -0.1 WNW 43 54 23 29 - - 0.0
27/02:51pm -2.3 -11.3 -2.4 99 -0.1 NW 35 54 19 29 - - 0.0
27/02:30pm -2.6 -13.1 -2.7 99 -0.1 WNW 43 54 23 29 - - 0.0
27/02:00pm -2.6 -13.1 -2.7 99 -0.1 NW 43 56 23 30 - - 0.0
27/01:30pm -2.3 -12.0 -2.4 99 -0.1 WNW 39 52 21 28 - - 0.0
27/01:00pm -2.5 -11.5 -2.6 99 -0.1 NW 35 48 19 26 - - 0.0
27/12:30pm -2.5 -10.9 -2.6 99 -0.1 WNW 32 44 17 24 - - 0.0
27/12:00pm -2.2 -10.6 -2.3 99 -0.1 WNW 32 48 17 26 - - 0.0
27/11:30am -2.6 -11.6 -2.7 99 -0.1 WNW 35 50 19 27 - - 0.0
27/11:00am -2.9 -12.7 -3.0 99 -0.1 WNW 39 56 21 30 - - 0.0
27/10:30am -3.0 -13.6 -3.1 99 -0.1 WNW 43 54 23 29 - - 0.0
27/10:00am -2.6 -11.6 -2.7 99 -0.1 NW 35 46 19 25 - - 0.0
27/09:33am -2.8 -12.2 -2.9 99 -0.1 NW 37 56 20 30 - - 0.0
27/09:30am -2.7 -12.5 -2.8 99 -0.1 NW 39 54 21 29 - - 0.0
27/09:05am -3.0 -11.5 -3.1 99 -0.1 NW 32 50 17 27 - - 0.0
27/09:00am -3.0 -11.7 -3.1 99 -0.1 NW 33 50 18 27 - - 0.0
27/08:30am -3.0 -12.8 -3.1 99 -0.1 NW 39 57 21 31 - - 0.0
27/08:00am -2.8 -11.4 -2.9 99 -0.1 NW 33 57 18 31 - - 0.0
27/07:58am -2.8 -11.4 -2.9 99 -0.1 NW 33 57 18 31 - - 0.0
27/07:30am -2.9 -11.9 -3.0 99 -0.1 NNW 35 50 19 27 - - 0.0
27/07:00am -3.2 -14.7 -3.3 99 -0.1 NW 48 67 26 36 - - 0.0
27/06:30am -3.4 -15.3 -3.5 99 -0.1 NW 50 74 27 40 - - 0.0
27/06:00am -3.1 -14.6 -3.2 99 -0.1 NW 48 67 26 36 - - 0.0
27/05:30am -3.2 -13.8 -3.3 99 -0.1 NW 43 61 23 33 - - 0.0
27/05:25am -3.3 -13.9 -3.4 99 -0.1 NNW 43 61 23 33 - - 0.0
27/05:00am -3.6 -12.3 -3.7 99 -0.1 NNW 33 44 18 24 - - 0.0
27/04:30am -3.6 -13.5 -3.7 99 -0.1 NNW 39 54 21 29 - - 0.0
27/04:00am -3.7 -14.0 -3.8 99 -0.1 NNW 41 61 22 33 - - 0.0
27/03:57am -3.7 -14.0 -3.8 99 -0.1 NNW 41 61 22 33 - - 0.0
27/03:30am -3.7 -13.2 -3.8 99 -0.1 NNW 37 48 20 26 - - 0.0
27/03:00am -3.8 -14.6 -3.9 99 -0.1 NNW 44 52 24 28 - - 0.0
27/02:42am -3.9 -14.6 -4.0 99 -0.1 NNW 43 72 23 39 - - 0.0
27/02:30am -4.0 -13.9 -4.1 99 -0.1 NNW 39 50 21 27 - - 0.0
27/02:00am -4.0 -14.3 -4.1 99 -0.1 NNW 41 61 22 33 - - 0.0
27/01:30am -4.2 -13.4 -4.3 99 -0.2 NNW 35 72 19 39 - - 0.0
27/01:00am -4.5 -14.9 -4.8 98 -0.1 NNW 41 63 22 34 - - 0.0
27/12:33am -4.6 -16.7 -4.9 98 -0.1 NNW 50 69 27 37 - - 0.0
27/12:30am -4.6 -16.7 -4.9 98 -0.1 NNW 50 65 27 35 - - 0.0
27/12:07am -5.0 -16.4 -5.3 98 -0.1 NNW 46 65 25 35 - - 0.0
27/12:00am -5.1 -16.5 -5.4 98 -0.1 NNW 46 59 25 32 - - 0.0
 
Date/Time
EST
Temp
°C
App
Temp
°C
Dew
Point
°C
Rel
Hum
%
Delta-T
°C
Wind Press
QNH
hPa
Press
MSL
hPa
Rain since
9am
mm
Dir  Spd
km/h
Gust
km/h
Spd
kts
Gust
kts
26/11:30pm -4.9 -14.2 -5.2 98 -0.1 NW 35 56 19 30 - - 0.0
26/11:00pm -4.7 -15.1 -5.0 98 -0.1 NNW 41 61 22 33 - - 0.0
26/10:30pm -4.9 -14.9 -5.2 98 -0.1 NNW 39 63 21 34 - - 0.0
26/10:00pm -5.1 -16.5 -5.4 98 -0.1 NNW 46 69 25 37 - - 0.0
26/09:39pm -5.0 -17.9 -5.3 98 -0.1 NNW 54 72 29 39 - - 0.0
26/09:30pm -5.1 -18.6 -5.4 98 -0.1 NNW 57 72 31 39 - - 0.0
26/09:01pm -4.8 -16.2 -5.1 98 -0.1 NNW 46 65 25 35 - - 0.0
26/09:00pm -4.8 -16.2 -5.1 98 -0.1 NNW 46 59 25 32 - - 0.0
26/08:30pm -5.1 -16.9 -5.4 98 -0.1 NNW 48 67 26 36 - - 0.0
26/08:01pm -4.6 -15.6 -4.9 98 -0.1 NNW 44 63 24 34 - - 0.0
26/08:00pm -4.6 -15.9 -4.9 98 -0.1 NNW 46 63 25 34 - - 0.0
26/07:30pm -4.8 -16.5 -5.1 98 -0.1 NW 48 83 26 45 - - 0.0
26/07:26pm -5.0 -16.8 -5.3 98 -0.1 NW 48 83 26 45 - - 0.0
26/07:24pm -4.9 -17.0 -5.2 98 -0.1 NW 50 83 27 45 - - 0.0
26/07:00pm -4.8 -19.4 -5.1 98 -0.1 NNW 63 82 34 44 - - 0.0
26/06:48pm -4.8 -18.2 -5.1 98 -0.1 NNW 57 82 31 44 - - 0.0
26/06:44pm -4.8 -17.3 -5.1 98 -0.1 NNW 52 70 28 38 - - 0.0
26/06:30pm -5.0 -17.5 -5.3 98 -0.1 NNW 52 65 28 35 - - 0.0
26/06:00pm -4.8 -17.7 -5.1 98 -0.1 NNW 54 67 29 36 - - 0.0
26/05:30pm -4.4 -17.6 -4.7 98 -0.1 NNW 56 70 30 38 - - 0.0
26/05:13pm -4.6 -18.4 -4.9 98 -0.1 NNW 59 80 32 43 - - 0.0
26/05:00pm -4.7 -17.9 -5.0 98 -0.1 NNW 56 67 30 36 - - 0.0
26/04:30pm -4.9 -19.5 -5.2 98 -0.1 NNW 63 78 34 42 - - 0.0
26/04:08pm -5.0 -19.2 -5.3 98 -0.1 NNW 61 82 33 44 - - 0.0
26/04:00pm -5.1 -19.3 -5.4 98 -0.1 NNW 61 74 33 40 - - 0.0
26/03:30pm -5.1 -19.0 -5.4 98 -0.1 NNW 59 76 32 41 - - 0.0
26/03:02pm -4.6 -17.5 -4.9 98 -0.1 NNW 54 72 29 39 - - 0.0
26/03:00pm -4.7 -17.9 -5.0 98 -0.1 NNW 56 72 30 39 - - 0.0
26/02:42pm -4.9 -18.4 -5.2 98 -0.1 NNW 57 76 31 41 - - 0.0
26/02:30pm -5.1 -18.6 -5.4 98 -0.1 NNW 57 74 31 40 - - 0.0
26/02:07pm -4.7 -17.2 -5.0 98 -0.1 NNW 52 70 28 38 - - 0.0
26/02:00pm -4.9 -18.4 -5.2 98 -0.1 NNW 57 70 31 38 - - 0.0
26/01:44pm -4.9 -17.8 -5.2 98 -0.1 NNW 54 72 29 39 - - 0.0
26/01:30pm -4.7 -17.9 -5.0 98 -0.1 NNW 56 70 30 38 - - 0.0
26/01:00pm -4.8 -16.9 -5.1 98 -0.1 NW 50 65 27 35 - - 0.0
26/12:30pm -5.0 -18.8 -5.3 98 -0.1 NNW 59 74 32 40 - - 0.0
26/12:00pm -5.1 -19.0 -5.4 98 -0.1 NNW 59 70 32 38 - - 0.0
26/11:30am -5.6 -18.6 -5.9 98 -0.1 NNW 54 67 29 36 - - 0.0
26/11:15am -5.5 -18.1 -5.8 98 -0.1 NNW 52 70 28 38 - - 0.0
26/11:00am -5.5 -18.5 -5.8 98 -0.1 NNW 54 67 29 36 - - 0.0
26/10:30am -5.8 -19.3 -6.1 98 -0.1 NNW 57 67 31 36 - - 0.0
26/10:10am -5.6 -18.9 -6.0 97 -0.1 NNW 56 74 30 40 - - 0.0
26/10:00am -5.6 -18.9 -6.0 97 -0.1 NNW 56 69 30 37 - - 0.0
26/09:30am -5.6 -18.9 -6.0 97 -0.1 NNW 56 70 30 38 - - 0.0
26/09:04am -6.0 -17.5 -6.4 97 -0.1 NNW 46 72 25 39 - - 0.0
26/09:00am -5.9 -17.4 -6.3 97 -0.1 NNW 46 63 25 34 - - 0.0
26/08:56am -5.9 -17.7 -6.2 98 -0.1 NNW 48 67 26 36 - - 0.0
26/08:30am -6.1 -17.2 -6.5 97 -0.1 NNW 44 61 24 33 - - 0.0
26/08:08am -6.0 -17.1 -6.3 98 -0.2 NNW 44 65 24 35 - - 0.0
26/08:00am -5.7 -16.2 -6.0 98 -0.1 NNW 41 57 22 31 - - 0.0
26/07:37am -6.3 -16.5 -6.7 97 -0.1 NNW 39 57 21 31 - - 0.0
26/07:30am -6.1 -16.3 -6.4 98 -0.2 NNW 39 56 21 30 - - 0.0
26/07:29am -6.1 -16.3 -6.4 98 -0.2 NNW 39 61 21 33 - - 0.0
26/07:00am -6.2 -19.6 -6.5 98 -0.2 NNW 56 78 30 42 - - 0.0
26/06:30am -6.2 -19.2 -6.5 98 -0.2 NNW 54 78 29 42 - - 0.0
26/06:00am -5.7 -16.6 -6.0 98 -0.1 NW 43 65 23 35 - - 0.0
26/05:34am -6.1 -16.6 -6.4 98 -0.2 NW 41 61 22 33 - - 0.0
26/05:30am -6.1 -17.0 -6.4 98 -0.2 NW 43 57 23 31 - - 0.0
26/05:00am -5.8 -15.9 -6.1 98 -0.1 NW 39 63 21 34 - - 0.0
26/04:30am -5.9 -17.4 -6.2 98 -0.1 WNW 46 69 25 37 - - 0.0
26/04:00am -5.8 -16.7 -6.1 98 -0.1 NW 43 74 23 40 - - 0.0
26/03:55am -5.7 -16.2 -6.0 98 -0.1 NW 41 65 22 35 - - 0.0
26/03:52am -5.6 -16.5 -5.9 98 -0.1 NW 43 78 23 42 - - 0.0
26/03:44am -5.6 -17.0 -5.9 98 -0.1 NW 46 80 25 43 - - 0.0
26/03:43am -5.7 -17.5 -6.0 98 -0.1 NW 48 80 26 43 - - 0.0
26/03:30am -5.5 -16.6 -5.8 98 -0.1 NW 44 74 24 40 - - 0.0
26/03:00am -5.3 -16.7 -5.6 98 -0.1 NW 46 78 25 42 - - 0.0
26/02:30am -5.1 -18.6 -5.4 98 -0.1 WNW 57 87 31 47 - - 0.0
26/02:00am -3.8 -17.9 -3.9 99 -0.1 NW 61 89 33 48 - - 0.0
26/01:54am -3.4 -16.5 -3.5 99 -0.1 NW 56 87 30 47 - - 0.0
26/01:52am -3.3 -15.6 -3.4 99 -0.1 NW 52 82 28 44 - - 0.0
26/01:30am -2.9 -14.0 -3.0 99 -0.1 NW 46 83 25 45 - - 0.0
26/01:01am -2.8 -15.1 -2.9 99 -0.1 NNW 52 74 28 40 - - 0.0
26/01:00am -2.8 -15.1 -2.9 99 -0.1 NNW 52 74 28 40 - - 0.0
26/12:59am -2.8 -15.4 -2.9 99 -0.1 NNW 54 74 29 40 - - 0.0
26/12:30am -2.7 -17.8 -2.8 99 -0.1 NNW 67 89 36 48 - - 0.0
26/12:03am -2.5 -18.1 -2.6 99 -0.1 NNW 70 91 38 49 - - 0.0
26/12:00am -2.6 -18.2 -2.7 99 -0.1 NNW 70 87 38 47 - - 0.0
 
Date/Time
EST
Temp
°C
App
Temp
°C
Dew
Point
°C
Rel
Hum
%
Delta-T
°C
Wind Press
QNH
hPa
Press
MSL
hPa
Rain since
9am
mm
Dir  Spd
km/h
Gust
km/h
Spd
kts
Gust
kts
25/11:34pm -2.6 -18.2 -2.7 99 -0.1 NNW 70 93 38 50 - - 0.0
25/11:30pm -2.6 -18.6 -2.7 99 -0.1 NNW 72 89 39 48 - - 0.0
25/11:00pm -2.7 -17.4 -2.8 99 -0.1 NNW 65 82 35 44 - - 0.0
25/10:41pm -2.8 -17.9 -2.9 99 -0.1 NNW 67 89 36 48 - - 0.0
25/10:30pm -2.9 -17.6 -3.0 99 -0.1 NNW 65 82 35 44 - - 0.0
25/10:01pm -2.9 -16.9 -3.0 99 -0.1 NNW 61 80 33 43 - - 0.0
25/10:00pm -2.9 -16.5 -3.0 99 -0.1 NNW 59 76 32 41 - - 0.0
25/09:34pm -2.9 -14.8 -3.0 99 -0.1 NNW 50 69 27 37 - - 0.0
25/09:30pm -2.9 -15.2 -3.0 99 -0.1 NNW 52 69 28 37 - - 0.0
25/09:00pm -3.1 -15.0 -3.2 99 -0.1 NNW 50 70 27 38 - - 0.0
25/08:30pm -3.3 -15.6 -3.4 99 -0.1 NNW 52 72 28 39 - - 0.0
25/08:29pm -3.2 -15.5 -3.3 99 -0.1 NNW 52 72 28 39 - - 0.0
25/08:07pm -3.2 -11.9 -3.3 99 -0.1 NNW 33 54 18 29 - - 0.0
25/08:00pm -3.2 -12.3 -3.3 99 -0.1 NNW 35 52 19 28 - - 0.0
25/07:30pm -3.6 -13.9 -3.7 99 -0.1 NNW 41 61 22 33 - - 0.0
25/07:20pm -3.1 -12.9 -3.2 99 -0.1 NNW 39 59 21 32 - - 0.0
25/07:00pm -3.0 -13.2 -3.1 99 -0.1 NNW 41 54 22 29 - - 0.0
25/06:30pm -2.3 -10.7 -2.4 99 -0.1 NNW 32 50 17 27 - - 0.0
25/06:00pm -2.4 -14.6 -2.5 99 -0.1 NNW 52 70 28 38 - - 0.0
25/05:53pm -2.6 -14.4 -2.7 99 -0.1 NNW 50 69 27 37 - - 0.0
25/05:30pm -2.9 -16.1 -3.0 99 -0.1 NNW 57 72 31 39 - - 0.0
25/05:00pm -2.4 -13.8 -2.5 99 -0.1 NNW 48 67 26 36 - - 0.0
25/04:33pm -2.5 -12.6 -2.6 99 -0.1 NNW 41 59 22 32 - - 0.0
25/04:30pm -2.4 -12.5 -2.5 99 -0.1 NNW 41 56 22 30 - - 0.0
25/04:18pm -2.5 -11.9 -2.6 99 -0.1 NNW 37 57 20 31 - - 0.0
25/04:00pm -2.6 -12.4 -2.7 99 -0.1 NNW 39 56 21 30 - - 0.0
25/03:50pm -2.7 -11.7 -2.8 99 -0.1 NNW 35 56 19 30 - - 0.0
25/03:30pm -2.9 -12.7 -3.0 99 -0.1 NNW 39 52 21 28 - - 0.0
25/03:06pm -2.9 -13.6 -3.0 99 -0.1 NNW 44 65 24 35 - - 0.0
25/03:00pm -2.9 -13.6 -3.0 99 -0.1 NNW 44 59 24 32 - - 0.0
25/02:30pm -3.2 -14.4 -3.3 99 -0.1 NNW 46 69 25 37 - - 0.0
25/02:10pm -3.3 -14.9 -3.4 99 -0.1 NNW 48 67 26 36 - - 0.0
25/02:00pm -3.4 -16.1 -3.5 99 -0.1 NNW 54 65 29 35 - - 0.0
25/01:40pm -3.5 -14.7 -3.6 99 -0.1 NNW 46 65 25 35 - - 0.0
25/01:30pm -3.5 -14.7 -3.6 99 -0.1 NNW 46 63 25 34 - - 0.0
25/01:00pm -3.4 -16.5 -3.5 99 -0.1 NNW 56 69 30 37 - - 0.0
25/12:30pm -3.4 -15.7 -3.5 99 -0.1 NNW 52 65 28 35 - - 0.0
25/12:00pm -3.4 -14.6 -3.5 99 -0.1 NNW 46 63 25 34 - - 0.0
25/11:55am -3.5 -14.1 -3.6 99 -0.1 NNW 43 61 23 33 - - 0.0
25/11:30am -3.7 -14.0 -3.8 99 -0.1 NNW 41 56 22 30 - - 0.0
25/11:00am -3.5 -12.0 -3.6 99 -0.1 NW 32 52 17 28 - - 0.0
25/10:33am -3.9 -12.7 -4.0 99 -0.1 NW 33 52 18 28 - - 0.0
25/10:30am -3.8 -12.9 -3.9 99 -0.1 NNW 35 52 19 28 - - 0.0
25/10:00am -4.2 -13.4 -4.3 99 -0.2 NW 35 54 19 29 - - 0.0
25/09:32am -4.3 -15.0 -4.6 98 -0.1 NW 43 61 23 33 - - 0.0
25/09:30am -4.3 -15.0 -4.6 98 -0.1 NW 43 57 23 31 - - 0.0
25/09:05am -4.5 -14.1 -4.8 98 -0.1 NW 37 56 20 30 - - 0.0
25/09:00am -4.5 -14.5 -4.8 98 -0.1 NNW 39 56 21 30 - - 0.0
25/08:44am -4.2 -14.2 -4.5 98 -0.1 NW 39 57 21 31 - - 0.0
25/08:30am -4.4 -16.1 -4.7 98 -0.1 NW 48 61 26 33 - - 0.0
25/08:03am -4.5 -15.8 -4.8 98 -0.1 NW 46 65 25 35 - - 0.0
25/08:00am -4.6 -15.9 -4.9 98 -0.1 NW 46 57 25 31 - - 0.0
25/07:30am -4.6 -15.9 -4.9 98 -0.1 NW 46 61 25 33 - - 0.0
25/07:05am -4.5 -14.5 -4.8 98 -0.1 NW 39 57 21 31 - - 0.0
25/07:00am -4.6 -15.0 -4.9 98 -0.1 NW 41 57 22 31 - - 0.0
25/06:56am -4.6 -14.6 -4.9 98 -0.1 NW 39 57 21 31 - - 0.0
25/06:30am -4.7 -13.6 -5.0 98 -0.1 NW 33 48 18 26 - - 0.0
25/06:00am -4.9 -14.2 -5.2 98 -0.1 NW 35 57 19 31 - - 0.0
25/05:50am -4.8 -14.1 -5.1 98 -0.1 NW 35 56 19 30 - - 0.0
25/05:30am -4.9 -13.6 -5.2 98 -0.1 NW 32 43 17 23 - - 0.0
25/05:00am -4.8 -13.1 -5.1 98 -0.1 NW 30 43 16 23 - - 0.0
25/04:30am -4.7 -13.0 -5.0 98 -0.1 NW 30 43 16 23 - - 0.0
25/04:00am -5.0 -15.0 -5.3 98 -0.1 NW 39 52 21 28 - - 0.0
25/03:30am -5.1 -14.4 -5.4 98 -0.1 NW 35 48 19 26 - - 0.0
25/03:00am -4.7 -12.6 -5.0 98 -0.1 NW 28 46 15 25 - - 0.0
25/02:39am -4.9 -12.8 -5.2 98 -0.1 NW 28 46 15 25 - - 0.0
25/02:30am -5.0 -12.2 -5.3 98 -0.1 NW 24 37 13 20 - - 0.0
25/02:00am -5.0 -13.7 -5.3 98 -0.1 NW 32 56 17 30 - - 0.0
25/01:40am -4.7 -12.6 -5.0 98 -0.1 NNW 28 46 15 25 - - 0.0
25/01:30am -4.8 -12.0 -5.1 98 -0.1 NW 24 41 13 22 - - 0.0
25/01:00am -4.8 -13.5 -5.1 98 -0.1 NNW 32 44 17 24 - - 0.0
25/12:30am -4.5 -14.1 -4.8 98 -0.1 NNW 37 52 20 28 - - 0.0
25/12:21am -4.4 -14.0 -4.7 98 -0.1 NNW 37 52 20 28 - - 0.0
25/12:00am -4.3 -12.2 -4.4 99 -0.2 NNW 28 33 15 18 - - 0.0
 
Date/Time
EST
Temp
°C
App
Temp
°C
Dew
Point
°C
Rel
Hum
%
Delta-T
°C
Wind Press
QNH
hPa
Press
MSL
hPa
Rain since
9am
mm
Dir  Spd
km/h
Gust
km/h
Spd
kts
Gust
kts
24/11:30pm -3.6 -11.8 -3.7 99 -0.1 NNW 30 39 16 21 - - 0.0
24/11:00pm -4.1 -12.3 -4.2 99 -0.2 NNW 30 39 16 21 - - 0.0
24/10:34pm -4.2 -13.0 -4.3 99 -0.2 NNW 33 52 18 28 - - 0.0
24/10:30pm -4.2 -13.8 -4.3 99 -0.2 NNW 37 52 20 28 - - 0.0
24/10:20pm -4.3 -12.2 -4.4 99 -0.2 NNW 28 54 15 29 - - 0.0
24/10:00pm -4.7 -11.9 -5.0 98 -0.1 NW 24 37 13 20 - - 0.0
24/09:30pm -4.7 -15.5 -5.0 98 -0.1 NNW 43 61 23 33 - - 0.0

Latest Capital City Observations: Canberra | Sydney | Melbourne | Brisbane | Adelaide | Perth | Hobart | Darwin

Other Formats:

Comma delimited format used in spreadsheet applications
http://www.bom.gov.au/fwo/IDN60903/IDN60903.95909.axf

JavaScript Object Notation format (JSON) in row-major order
http://www.bom.gov.au/fwo/IDN60903/IDN60903.95909.json